Aviation Digital Data Service (ADDS)

Output produced by METARs form (0401 UTC 26 June 2019)
found at http://www.aviationweather.gov/metar/data/
 
Forecast for: SYCJ (GEORGETOWN/TIMEH, GY)
Text: TAF SYCJ 260400Z 2606/2706 03004KT 9999 SCT017
Forecast period: 0600 to 1200 UTC 26 June 2019
Forecast type: FROM: standard forecast or significant change
Winds: from the NNE (30 degrees) at 5 MPH (4 knots; 2.1 m/s)
Visibility: 6 or more miles 10+ km)
Ceiling: at least 12,000 feet AGL
Clouds: scattered clouds at 1700 feet AGL
Weather: no significant weather forecast for this period
Text: BECMG 2612/2614 06014KT 9999 BKN020
Forecast period: 1200 to 2200 UTC 26 June 2019
Forecast type: BECOMING: Conditions expected to become as follows by 1400 UTC 26 June 2019
Winds: from the ENE (60 degrees) at 16 MPH (14 knots; 7.2 m/s)
Visibility: 6 or more miles 10+ km)
Ceiling: 2000 feet AGL
Clouds: broken clouds at 2000 feet AGL
Weather: no significant weather forecast for this period
Text: BECMG 2622/2700 08006KT 7000 SHRA BKN016 BKN034
Forecast period: 2200 UTC 26 June 2019 to 0600 UTC 27 June 2019
Forecast type: BECOMING: Conditions expected to become as follows by 0000 UTC 27 June 2019
Winds: from the E (80 degrees) at 7 MPH (6 knots; 3.1 m/s)
Visibility: 4 miles (7 km)
Ceiling: 1600 feet AGL
Clouds: broken clouds at 1600 feet AGL
broken clouds at 3400 feet AGL
Weather: SHRA  (rain showers)